sensor_id;sensor_type;location;lat;lon;timestamp;P1;durP1;ratioP1;P2;durP2;ratioP2
37001;SDS011;22913;51.910;8.374;2022-09-09T00:00:11;3.07;;;1.23;;
37001;SDS011;22913;51.910;8.374;2022-09-09T00:03:00;1.67;;;1.30;;
37001;SDS011;22913;51.910;8.374;2022-09-09T00:05:51;5.23;;;1.50;;
37001;SDS011;22913;51.910;8.374;2022-09-09T00:08:45;2.67;;;1.33;;
37001;SDS011;22913;51.910;8.374;2022-09-09T00:11:42;3.20;;;1.37;;
37001;SDS011;22913;51.910;8.374;2022-09-09T00:14:34;1.27;;;1.17;;
37001;SDS011;22913;51.910;8.374;2022-09-09T00:17:30;1.70;;;1.20;;
37001;SDS011;22913;51.910;8.374;2022-09-09T00:20:21;1.90;;;1.50;;
37001;SDS011;22913;51.910;8.374;2022-09-09T00:23:14;1.43;;;1.27;;
37001;SDS011;22913;51.910;8.374;2022-09-09T00:26:09;1.93;;;1.30;;
37001;SDS011;22913;51.910;8.374;2022-09-09T00:29:03;3.80;;;1.57;;
37001;SDS011;22913;51.910;8.374;2022-09-09T00:31:54;2.00;;;1.50;;
37001;SDS011;22913;51.910;8.374;2022-09-09T00:34:49;3.20;;;1.40;;
37001;SDS011;22913;51.910;8.374;2022-09-09T00:37:38;2.93;;;1.57;;
37001;SDS011;22913;51.910;8.374;2022-09-09T00:40:26;3.43;;;1.60;;
37001;SDS011;22913;51.910;8.374;2022-09-09T00:43:21;3.33;;;1.50;;
37001;SDS011;22913;51.910;8.374;2022-09-09T00:46:21;3.30;;;1.13;;
37001;SDS011;22913;51.910;8.374;2022-09-09T00:49:31;2.07;;;1.63;;
37001;SDS011;22913;51.910;8.374;2022-09-09T00:52:28;2.90;;;1.43;;
37001;SDS011;22913;51.910;8.374;2022-09-09T00:55:21;6.03;;;1.67;;
37001;SDS011;22913;51.910;8.374;2022-09-09T00:58:13;1.67;;;1.23;;
37001;SDS011;22913;51.910;8.374;2022-09-09T01:01:00;3.37;;;1.43;;
37001;SDS011;22913;51.910;8.374;2022-09-09T01:03:51;2.80;;;1.83;;
37001;SDS011;22913;51.910;8.374;2022-09-09T01:06:39;2.37;;;1.30;;
37001;SDS011;22913;51.910;8.374;2022-09-09T01:09:27;3.10;;;1.57;;
37001;SDS011;22913;51.910;8.374;2022-09-09T01:12:28;3.13;;;1.50;;
37001;SDS011;22913;51.910;8.374;2022-09-09T01:15:21;3.27;;;1.40;;
37001;SDS011;22913;51.910;8.374;2022-09-09T01:18:10;2.23;;;1.30;;
37001;SDS011;22913;51.910;8.374;2022-09-09T01:21:02;2.60;;;1.40;;
37001;SDS011;22913;51.910;8.374;2022-09-09T01:24:15;3.60;;;1.57;;
37001;SDS011;22913;51.910;8.374;2022-09-09T01:27:08;3.57;;;2.10;;
37001;SDS011;22913;51.910;8.374;2022-09-09T01:29:55;2.27;;;1.80;;
37001;SDS011;22913;51.910;8.374;2022-09-09T01:32:44;2.53;;;1.63;;
37001;SDS011;22913;51.910;8.374;2022-09-09T01:35:34;3.93;;;1.53;;
37001;SDS011;22913;51.910;8.374;2022-09-09T01:38:30;4.07;;;1.30;;
37001;SDS011;22913;51.910;8.374;2022-09-09T01:41:17;2.33;;;1.80;;
37001;SDS011;22913;51.910;8.374;2022-09-09T01:44:04;3.17;;;1.40;;
37001;SDS011;22913;51.910;8.374;2022-09-09T01:46:52;2.47;;;1.43;;
37001;SDS011;22913;51.910;8.374;2022-09-09T01:49:37;3.20;;;1.83;;
37001;SDS011;22913;51.910;8.374;2022-09-09T01:52:23;1.87;;;1.30;;
37001;SDS011;22913;51.910;8.374;2022-09-09T01:55:09;2.23;;;1.50;;
37001;SDS011;22913;51.910;8.374;2022-09-09T01:57:57;1.57;;;1.40;;
37001;SDS011;22913;51.910;8.374;2022-09-09T02:00:55;2.00;;;1.60;;
37001;SDS011;22913;51.910;8.374;2022-09-09T02:03:47;4.43;;;1.73;;
37001;SDS011;22913;51.910;8.374;2022-09-09T02:06:38;2.93;;;1.30;;
37001;SDS011;22913;51.910;8.374;2022-09-09T02:09:25;1.57;;;1.30;;
37001;SDS011;22913;51.910;8.374;2022-09-09T02:12:12;3.07;;;1.30;;
37001;SDS011;22913;51.910;8.374;2022-09-09T02:15:02;3.07;;;1.40;;
37001;SDS011;22913;51.910;8.374;2022-09-09T02:17:54;3.10;;;1.23;;
37001;SDS011;22913;51.910;8.374;2022-09-09T02:20:42;1.50;;;1.30;;
37001;SDS011;22913;51.910;8.374;2022-09-09T02:23:29;2.10;;;1.50;;
37001;SDS011;22913;51.910;8.374;2022-09-09T02:26:16;2.80;;;1.40;;
37001;SDS011;22913;51.910;8.374;2022-09-09T02:29:05;3.03;;;1.30;;
37001;SDS011;22913;51.910;8.374;2022-09-09T02:31:53;3.70;;;1.40;;
37001;SDS011;22913;51.910;8.374;2022-09-09T02:34:44;1.77;;;1.50;;
37001;SDS011;22913;51.910;8.374;2022-09-09T02:37:33;4.40;;;1.33;;
37001;SDS011;22913;51.910;8.374;2022-09-09T02:40:22;2.00;;;1.47;;
37001;SDS011;22913;51.910;8.374;2022-09-09T02:43:07;2.23;;;1.60;;
37001;SDS011;22913;51.910;8.374;2022-09-09T02:46:01;4.47;;;1.70;;
37001;SDS011;22913;51.910;8.374;2022-09-09T02:49:03;3.13;;;1.43;;
37001;SDS011;22913;51.910;8.374;2022-09-09T02:51:57;5.63;;;1.60;;
37001;SDS011;22913;51.910;8.374;2022-09-09T02:54:49;1.40;;;1.30;;
37001;SDS011;22913;51.910;8.374;2022-09-09T02:57:42;3.07;;;1.70;;
37001;SDS011;22913;51.910;8.374;2022-09-09T03:00:31;2.23;;;1.90;;
37001;SDS011;22913;51.910;8.374;2022-09-09T03:03:17;5.37;;;1.80;;
37001;SDS011;22913;51.910;8.374;2022-09-09T03:06:03;5.30;;;1.90;;
37001;SDS011;22913;51.910;8.374;2022-09-09T03:08:51;4.00;;;1.70;;
37001;SDS011;22913;51.910;8.374;2022-09-09T03:11:37;5.50;;;1.93;;
37001;SDS011;22913;51.910;8.374;2022-09-09T03:14:23;3.30;;;1.70;;
37001;SDS011;22913;51.910;8.374;2022-09-09T03:17:09;3.43;;;2.00;;
37001;SDS011;22913;51.910;8.374;2022-09-09T03:19:54;2.13;;;1.60;;
37001;SDS011;22913;51.910;8.374;2022-09-09T03:22:42;4.67;;;1.77;;
37001;SDS011;22913;51.910;8.374;2022-09-09T03:25:30;4.40;;;1.97;;
37001;SDS011;22913;51.910;8.374;2022-09-09T03:28:15;5.03;;;2.17;;
37001;SDS011;22913;51.910;8.374;2022-09-09T03:31:02;3.23;;;1.90;;
37001;SDS011;22913;51.910;8.374;2022-09-09T03:33:49;3.40;;;2.00;;
37001;SDS011;22913;51.910;8.374;2022-09-09T03:36:35;3.07;;;1.70;;
37001;SDS011;22913;51.910;8.374;2022-09-09T03:39:20;5.23;;;2.03;;
37001;SDS011;22913;51.910;8.374;2022-09-09T03:42:07;4.90;;;1.90;;
37001;SDS011;22913;51.910;8.374;2022-09-09T03:44:53;4.60;;;2.00;;
37001;SDS011;22913;51.910;8.374;2022-09-09T03:47:41;4.07;;;2.30;;
37001;SDS011;22913;51.910;8.374;2022-09-09T03:50:27;4.77;;;2.20;;
37001;SDS011;22913;51.910;8.374;2022-09-09T03:53:13;5.47;;;1.93;;
37001;SDS011;22913;51.910;8.374;2022-09-09T03:55:59;4.83;;;2.00;;
37001;SDS011;22913;51.910;8.374;2022-09-09T03:58:47;2.50;;;1.90;;
37001;SDS011;22913;51.910;8.374;2022-09-09T04:01:33;2.67;;;1.80;;
37001;SDS011;22913;51.910;8.374;2022-09-09T04:04:18;3.17;;;2.17;;
37001;SDS011;22913;51.910;8.374;2022-09-09T04:07:04;5.90;;;2.20;;
37001;SDS011;22913;51.910;8.374;2022-09-09T04:09:50;2.07;;;1.70;;
37001;SDS011;22913;51.910;8.374;2022-09-09T04:12:36;4.27;;;2.30;;
37001;SDS011;22913;51.910;8.374;2022-09-09T04:15:23;5.33;;;2.17;;
37001;SDS011;22913;51.910;8.374;2022-09-09T04:18:09;4.83;;;2.43;;
37001;SDS011;22913;51.910;8.374;2022-09-09T04:20:55;4.37;;;2.33;;
37001;SDS011;22913;51.910;8.374;2022-09-09T04:23:41;6.57;;;1.70;;
37001;SDS011;22913;51.910;8.374;2022-09-09T04:26:27;3.43;;;2.30;;
37001;SDS011;22913;51.910;8.374;2022-09-09T04:29:12;4.30;;;2.20;;
37001;SDS011;22913;51.910;8.374;2022-09-09T04:32:00;4.87;;;2.00;;
37001;SDS011;22913;51.910;8.374;2022-09-09T04:34:46;3.57;;;2.20;;
37001;SDS011;22913;51.910;8.374;2022-09-09T04:37:31;3.23;;;1.80;;
37001;SDS011;22913;51.910;8.374;2022-09-09T04:40:17;3.20;;;1.93;;
37001;SDS011;22913;51.910;8.374;2022-09-09T04:43:03;3.27;;;1.90;;
37001;SDS011;22913;51.910;8.374;2022-09-09T04:45:49;2.40;;;2.03;;
37001;SDS011;22913;51.910;8.374;2022-09-09T04:48:37;2.50;;;2.17;;
37001;SDS011;22913;51.910;8.374;2022-09-09T04:51:24;3.77;;;2.07;;
37001;SDS011;22913;51.910;8.374;2022-09-09T04:54:10;4.13;;;2.23;;
37001;SDS011;22913;51.910;8.374;2022-09-09T04:56:56;5.67;;;2.20;;
37001;SDS011;22913;51.910;8.374;2022-09-09T04:59:41;4.43;;;2.20;;
37001;SDS011;22913;51.910;8.374;2022-09-09T05:02:28;4.47;;;2.27;;
37001;SDS011;22913;51.910;8.374;2022-09-09T05:05:15;3.00;;;1.93;;
37001;SDS011;22913;51.910;8.374;2022-09-09T05:08:02;4.30;;;2.37;;
37001;SDS011;22913;51.910;8.374;2022-09-09T05:10:48;5.03;;;2.43;;
37001;SDS011;22913;51.910;8.374;2022-09-09T05:13:34;4.70;;;2.13;;
37001;SDS011;22913;51.910;8.374;2022-09-09T05:16:19;5.07;;;2.37;;
37001;SDS011;22913;51.910;8.374;2022-09-09T05:19:06;3.80;;;2.30;;
37001;SDS011;22913;51.910;8.374;2022-09-09T05:21:53;3.73;;;2.60;;
37001;SDS011;22913;51.910;8.374;2022-09-09T05:24:39;4.37;;;2.03;;
37001;SDS011;22913;51.910;8.374;2022-09-09T05:27:25;2.77;;;2.20;;
37001;SDS011;22913;51.910;8.374;2022-09-09T05:30:11;6.20;;;2.50;;
37001;SDS011;22913;51.910;8.374;2022-09-09T05:32:56;3.47;;;2.23;;
37001;SDS011;22913;51.910;8.374;2022-09-09T05:35:42;2.67;;;2.03;;
37001;SDS011;22913;51.910;8.374;2022-09-09T05:38:29;4.47;;;2.20;;
37001;SDS011;22913;51.910;8.374;2022-09-09T05:41:19;5.87;;;2.43;;
37001;SDS011;22913;51.910;8.374;2022-09-09T05:44:07;4.77;;;2.27;;
37001;SDS011;22913;51.910;8.374;2022-09-09T05:46:52;6.23;;;2.60;;
37001;SDS011;22913;51.910;8.374;2022-09-09T05:49:38;5.53;;;2.27;;
37001;SDS011;22913;51.910;8.374;2022-09-09T05:52:24;5.00;;;2.37;;
37001;SDS011;22913;51.910;8.374;2022-09-09T05:55:12;3.80;;;2.57;;
37001;SDS011;22913;51.910;8.374;2022-09-09T05:57:59;5.43;;;2.60;;
37001;SDS011;22913;51.910;8.374;2022-09-09T06:00:45;5.03;;;2.60;;
37001;SDS011;22913;51.910;8.374;2022-09-09T06:03:30;6.73;;;2.43;;
37001;SDS011;22913;51.910;8.374;2022-09-09T06:06:17;5.43;;;2.50;;
37001;SDS011;22913;51.910;8.374;2022-09-09T06:09:05;4.07;;;2.33;;
37001;SDS011;22913;51.910;8.374;2022-09-09T06:11:55;5.53;;;2.43;;
37001;SDS011;22913;51.910;8.374;2022-09-09T06:14:41;3.53;;;2.17;;
37001;SDS011;22913;51.910;8.374;2022-09-09T06:17:27;3.87;;;2.23;;
37001;SDS011;22913;51.910;8.374;2022-09-09T06:20:13;2.60;;;2.40;;
37001;SDS011;22913;51.910;8.374;2022-09-09T06:22:59;4.63;;;2.43;;
37001;SDS011;22913;51.910;8.374;2022-09-09T06:25:46;4.30;;;2.40;;
37001;SDS011;22913;51.910;8.374;2022-09-09T06:28:34;3.73;;;1.93;;
37001;SDS011;22913;51.910;8.374;2022-09-09T06:31:20;4.50;;;2.20;;
37001;SDS011;22913;51.910;8.374;2022-09-09T06:34:07;4.73;;;2.10;;
37001;SDS011;22913;51.910;8.374;2022-09-09T06:36:53;5.97;;;2.57;;
37001;SDS011;22913;51.910;8.374;2022-09-09T06:39:41;5.60;;;2.37;;
37001;SDS011;22913;51.910;8.374;2022-09-09T06:42:27;4.77;;;2.60;;
37001;SDS011;22913;51.910;8.374;2022-09-09T06:45:14;9.27;;;2.40;;
37001;SDS011;22913;51.910;8.374;2022-09-09T06:47:59;6.10;;;2.10;;
37001;SDS011;22913;51.910;8.374;2022-09-09T06:50:46;4.73;;;2.47;;
37001;SDS011;22913;51.910;8.374;2022-09-09T06:53:34;4.77;;;2.20;;
37001;SDS011;22913;51.910;8.374;2022-09-09T06:56:22;6.10;;;2.00;;
37001;SDS011;22913;51.910;8.374;2022-09-09T06:59:09;5.13;;;2.40;;
37001;SDS011;22913;51.910;8.374;2022-09-09T07:01:57;4.27;;;2.30;;
37001;SDS011;22913;51.910;8.374;2022-09-09T07:04:42;4.17;;;2.30;;
37001;SDS011;22913;51.910;8.374;2022-09-09T07:07:28;5.73;;;2.60;;
37001;SDS011;22913;51.910;8.374;2022-09-09T07:10:14;5.73;;;2.00;;
37001;SDS011;22913;51.910;8.374;2022-09-09T07:13:00;4.03;;;2.23;;
37001;SDS011;22913;51.910;8.374;2022-09-09T07:15:46;3.80;;;2.10;;
37001;SDS011;22913;51.910;8.374;2022-09-09T07:18:33;3.77;;;2.00;;
37001;SDS011;22913;51.910;8.374;2022-09-09T07:21:19;4.77;;;1.80;;
37001;SDS011;22913;51.910;8.374;2022-09-09T07:24:05;3.30;;;2.03;;
37001;SDS011;22913;51.910;8.374;2022-09-09T07:26:50;4.93;;;2.10;;
37001;SDS011;22913;51.910;8.374;2022-09-09T07:29:36;7.50;;;2.07;;
37001;SDS011;22913;51.910;8.374;2022-09-09T07:32:22;4.17;;;2.13;;
37001;SDS011;22913;51.910;8.374;2022-09-09T07:35:10;5.90;;;1.97;;
37001;SDS011;22913;51.910;8.374;2022-09-09T07:37:56;5.87;;;1.80;;
37001;SDS011;22913;51.910;8.374;2022-09-09T07:40:42;3.23;;;1.77;;
37001;SDS011;22913;51.910;8.374;2022-09-09T07:43:28;5.40;;;1.80;;
37001;SDS011;22913;51.910;8.374;2022-09-09T07:46:14;5.40;;;2.30;;
37001;SDS011;22913;51.910;8.374;2022-09-09T07:49:02;4.10;;;2.10;;
37001;SDS011;22913;51.910;8.374;2022-09-09T07:51:49;2.97;;;1.87;;
37001;SDS011;22913;51.910;8.374;2022-09-09T07:54:34;5.07;;;1.80;;
37001;SDS011;22913;51.910;8.374;2022-09-09T07:57:20;4.37;;;1.90;;
37001;SDS011;22913;51.910;8.374;2022-09-09T08:00:07;4.37;;;2.30;;
37001;SDS011;22913;51.910;8.374;2022-09-09T08:02:54;2.67;;;1.40;;
37001;SDS011;22913;51.910;8.374;2022-09-09T08:05:40;4.53;;;2.17;;
37001;SDS011;22913;51.910;8.374;2022-09-09T08:08:28;2.93;;;1.70;;
37001;SDS011;22913;51.910;8.374;2022-09-09T08:11:14;4.13;;;1.77;;
37001;SDS011;22913;51.910;8.374;2022-09-09T08:14:00;5.03;;;2.00;;
37001;SDS011;22913;51.910;8.374;2022-09-09T08:16:47;2.67;;;1.43;;
37001;SDS011;22913;51.910;8.374;2022-09-09T08:19:34;5.10;;;2.30;;
37001;SDS011;22913;51.910;8.374;2022-09-09T08:22:20;3.93;;;1.50;;
37001;SDS011;22913;51.910;8.374;2022-09-09T08:25:07;5.77;;;1.60;;
37001;SDS011;22913;51.910;8.374;2022-09-09T08:27:54;5.60;;;1.70;;
37001;SDS011;22913;51.910;8.374;2022-09-09T08:30:40;3.57;;;1.93;;
37001;SDS011;22913;51.910;8.374;2022-09-09T08:33:25;3.73;;;1.67;;
37001;SDS011;22913;51.910;8.374;2022-09-09T08:36:13;2.93;;;2.17;;
37001;SDS011;22913;51.910;8.374;2022-09-09T08:39:00;2.77;;;1.27;;
37001;SDS011;22913;51.910;8.374;2022-09-09T08:41:52;2.80;;;1.60;;
37001;SDS011;22913;51.910;8.374;2022-09-09T08:45:02;3.97;;;1.70;;
37001;SDS011;22913;51.910;8.374;2022-09-09T08:48:10;3.60;;;1.60;;
37001;SDS011;22913;51.910;8.374;2022-09-09T08:51:02;2.80;;;1.50;;
37001;SDS011;22913;51.910;8.374;2022-09-09T08:53:52;3.07;;;1.50;;
37001;SDS011;22913;51.910;8.374;2022-09-09T08:56:38;3.47;;;1.50;;
37001;SDS011;22913;51.910;8.374;2022-09-09T08:59:25;3.80;;;1.70;;
37001;SDS011;22913;51.910;8.374;2022-09-09T09:02:14;3.57;;;1.40;;
37001;SDS011;22913;51.910;8.374;2022-09-09T09:05:06;3.00;;;1.70;;
37001;SDS011;22913;51.910;8.374;2022-09-09T09:08:04;3.30;;;1.23;;
37001;SDS011;22913;51.910;8.374;2022-09-09T09:10:56;4.20;;;1.40;;
37001;SDS011;22913;51.910;8.374;2022-09-09T09:13:45;1.77;;;1.30;;
37001;SDS011;22913;51.910;8.374;2022-09-09T09:16:41;2.27;;;1.47;;
37001;SDS011;22913;51.910;8.374;2022-09-09T09:19:33;7.93;;;1.63;;
37001;SDS011;22913;51.910;8.374;2022-09-09T09:22:21;3.97;;;1.47;;
37001;SDS011;22913;51.910;8.374;2022-09-09T09:25:11;2.47;;;1.20;;
37001;SDS011;22913;51.910;8.374;2022-09-09T09:28:07;3.87;;;2.00;;
37001;SDS011;22913;51.910;8.374;2022-09-09T09:31:01;4.93;;;1.63;;
37001;SDS011;22913;51.910;8.374;2022-09-09T09:33:52;4.63;;;1.33;;
37001;SDS011;22913;51.910;8.374;2022-09-09T09:36:40;3.70;;;1.70;;
37001;SDS011;22913;51.910;8.374;2022-09-09T09:39:28;4.00;;;1.50;;
37001;SDS011;22913;51.910;8.374;2022-09-09T09:42:19;4.60;;;1.60;;
37001;SDS011;22913;51.910;8.374;2022-09-09T09:45:13;5.67;;;1.80;;
37001;SDS011;22913;51.910;8.374;2022-09-09T09:48:03;4.07;;;1.60;;
37001;SDS011;22913;51.910;8.374;2022-09-09T09:50:54;4.40;;;1.60;;
37001;SDS011;22913;51.910;8.374;2022-09-09T09:53:41;3.50;;;1.80;;
37001;SDS011;22913;51.910;8.374;2022-09-09T09:56:28;2.23;;;1.43;;
37001;SDS011;22913;51.910;8.374;2022-09-09T09:59:21;2.90;;;1.63;;
37001;SDS011;22913;51.910;8.374;2022-09-09T10:02:15;5.43;;;1.43;;
37001;SDS011;22913;51.910;8.374;2022-09-09T10:05:04;4.13;;;1.20;;
37001;SDS011;22913;51.910;8.374;2022-09-09T10:08:02;4.97;;;1.67;;
37001;SDS011;22913;51.910;8.374;2022-09-09T10:13:56;5.20;;;1.70;;
37001;SDS011;22913;51.910;8.374;2022-09-09T10:16:53;3.90;;;1.77;;
37001;SDS011;22913;51.910;8.374;2022-09-09T10:19:52;5.97;;;1.87;;
37001;SDS011;22913;51.910;8.374;2022-09-09T10:22:47;5.53;;;1.73;;
37001;SDS011;22913;51.910;8.374;2022-09-09T10:25:47;5.27;;;2.10;;
37001;SDS011;22913;51.910;8.374;2022-09-09T10:28:51;3.73;;;1.60;;
37001;SDS011;22913;51.910;8.374;2022-09-09T10:31:52;3.13;;;1.60;;
37001;SDS011;22913;51.910;8.374;2022-09-09T10:34:54;4.70;;;1.90;;
37001;SDS011;22913;51.910;8.374;2022-09-09T10:38:00;4.80;;;1.50;;
37001;SDS011;22913;51.910;8.374;2022-09-09T10:41:18;4.53;;;1.80;;
37001;SDS011;22913;51.910;8.374;2022-09-09T10:44:17;3.70;;;1.60;;
37001;SDS011;22913;51.910;8.374;2022-09-09T10:47:17;3.57;;;1.77;;
37001;SDS011;22913;51.910;8.374;2022-09-09T10:50:25;5.73;;;1.77;;
37001;SDS011;22913;51.910;8.374;2022-09-09T10:53:30;6.30;;;2.40;;
37001;SDS011;22913;51.910;8.374;2022-09-09T10:56:24;3.93;;;1.50;;
37001;SDS011;22913;51.910;8.374;2022-09-09T10:59:13;6.27;;;2.17;;
37001;SDS011;22913;51.910;8.374;2022-09-09T11:02:10;3.87;;;1.90;;
37001;SDS011;22913;51.910;8.374;2022-09-09T11:05:01;3.40;;;1.70;;
37001;SDS011;22913;51.910;8.374;2022-09-09T11:07:50;4.23;;;1.80;;
37001;SDS011;22913;51.910;8.374;2022-09-09T11:10:41;4.20;;;1.70;;
37001;SDS011;22913;51.910;8.374;2022-09-09T11:13:39;2.60;;;1.53;;
37001;SDS011;22913;51.910;8.374;2022-09-09T11:16:29;3.00;;;1.50;;
37001;SDS011;22913;51.910;8.374;2022-09-09T11:19:26;3.57;;;1.80;;
37001;SDS011;22913;51.910;8.374;2022-09-09T11:22:19;1.77;;;1.30;;
37001;SDS011;22913;51.910;8.374;2022-09-09T11:25:14;2.53;;;1.40;;
37001;SDS011;22913;51.910;8.374;2022-09-09T11:28:09;4.57;;;1.63;;
37001;SDS011;22913;51.910;8.374;2022-09-09T11:31:14;2.63;;;1.57;;
37001;SDS011;22913;51.910;8.374;2022-09-09T11:34:16;6.13;;;2.13;;
37001;SDS011;22913;51.910;8.374;2022-09-09T11:37:15;4.97;;;1.63;;
37001;SDS011;22913;51.910;8.374;2022-09-09T11:40:20;4.90;;;1.63;;
37001;SDS011;22913;51.910;8.374;2022-09-09T11:43:09;3.70;;;1.27;;
37001;SDS011;22913;51.910;8.374;2022-09-09T11:45:58;2.43;;;1.20;;
37001;SDS011;22913;51.910;8.374;2022-09-09T11:48:57;3.37;;;1.40;;
37001;SDS011;22913;51.910;8.374;2022-09-09T11:51:44;2.20;;;1.40;;
37001;SDS011;22913;51.910;8.374;2022-09-09T11:54:30;3.07;;;1.60;;
37001;SDS011;22913;51.910;8.374;2022-09-09T11:57:22;1.83;;;1.50;;
37001;SDS011;22913;51.910;8.374;2022-09-09T12:06:27;1.80;;;1.00;;
37001;SDS011;22913;51.910;8.374;2022-09-09T12:09:18;3.47;;;1.63;;
37001;SDS011;22913;51.910;8.374;2022-09-09T12:12:21;4.60;;;1.47;;
37001;SDS011;22913;51.910;8.374;2022-09-09T12:15:23;2.20;;;1.27;;
37001;SDS011;22913;51.910;8.374;2022-09-09T12:18:14;2.23;;;1.30;;
37001;SDS011;22913;51.910;8.374;2022-09-09T12:21:07;4.33;;;1.60;;
37001;SDS011;22913;51.910;8.374;2022-09-09T12:24:14;3.33;;;1.47;;
37001;SDS011;22913;51.910;8.374;2022-09-09T12:27:06;4.03;;;1.67;;
37001;SDS011;22913;51.910;8.374;2022-09-09T12:30:02;3.03;;;1.50;;
37001;SDS011;22913;51.910;8.374;2022-09-09T12:32:58;2.73;;;1.27;;
37001;SDS011;22913;51.910;8.374;2022-09-09T12:35:47;3.40;;;1.40;;
37001;SDS011;22913;51.910;8.374;2022-09-09T12:38:37;3.90;;;1.70;;
37001;SDS011;22913;51.910;8.374;2022-09-09T12:41:26;3.43;;;1.50;;
37001;SDS011;22913;51.910;8.374;2022-09-09T12:44:12;2.60;;;1.40;;
37001;SDS011;22913;51.910;8.374;2022-09-09T12:46:59;3.40;;;1.50;;
37001;SDS011;22913;51.910;8.374;2022-09-09T12:49:47;1.20;;;0.93;;
37001;SDS011;22913;51.910;8.374;2022-09-09T12:52:34;2.60;;;1.20;;
37001;SDS011;22913;51.910;8.374;2022-09-09T12:55:23;1.67;;;1.40;;
37001;SDS011;22913;51.910;8.374;2022-09-09T12:58:15;1.93;;;1.30;;
37001;SDS011;22913;51.910;8.374;2022-09-09T13:01:03;2.40;;;1.20;;
37001;SDS011;22913;51.910;8.374;2022-09-09T13:03:50;4.07;;;1.50;;
37001;SDS011;22913;51.910;8.374;2022-09-09T13:06:36;3.47;;;1.50;;
37001;SDS011;22913;51.910;8.374;2022-09-09T13:09:22;2.60;;;1.53;;
37001;SDS011;22913;51.910;8.374;2022-09-09T13:12:09;1.43;;;1.33;;
37001;SDS011;22913;51.910;8.374;2022-09-09T13:15:01;3.53;;;1.70;;
37001;SDS011;22913;51.910;8.374;2022-09-09T13:17:49;2.63;;;1.30;;
37001;SDS011;22913;51.910;8.374;2022-09-09T13:20:45;4.33;;;1.47;;
37001;SDS011;22913;51.910;8.374;2022-09-09T13:23:32;3.07;;;1.43;;
37001;SDS011;22913;51.910;8.374;2022-09-09T13:26:20;4.23;;;1.33;;
37001;SDS011;22913;51.910;8.374;2022-09-09T13:29:09;1.70;;;1.07;;
37001;SDS011;22913;51.910;8.374;2022-09-09T13:32:15;2.03;;;1.30;;
37001;SDS011;22913;51.910;8.374;2022-09-09T13:35:03;2.53;;;1.27;;
37001;SDS011;22913;51.910;8.374;2022-09-09T13:37:50;1.20;;;1.10;;
37001;SDS011;22913;51.910;8.374;2022-09-09T13:40:36;1.27;;;1.07;;
37001;SDS011;22913;51.910;8.374;2022-09-09T13:43:23;1.90;;;1.20;;
37001;SDS011;22913;51.910;8.374;2022-09-09T13:46:22;2.13;;;1.30;;
37001;SDS011;22913;51.910;8.374;2022-09-09T13:49:20;2.13;;;1.00;;
37001;SDS011;22913;51.910;8.374;2022-09-09T13:52:11;1.57;;;1.40;;
37001;SDS011;22913;51.910;8.374;2022-09-09T13:54:58;1.70;;;1.13;;
37001;SDS011;22913;51.910;8.374;2022-09-09T13:57:50;6.63;;;1.50;;
37001;SDS011;22913;51.910;8.374;2022-09-09T14:00:37;2.87;;;1.40;;
37001;SDS011;22913;51.910;8.374;2022-09-09T14:03:23;1.37;;;1.00;;
37001;SDS011;22913;51.910;8.374;2022-09-09T14:06:10;1.90;;;1.17;;
37001;SDS011;22913;51.910;8.374;2022-09-09T14:08:57;2.33;;;1.40;;
37001;SDS011;22913;51.910;8.374;2022-09-09T14:11:44;2.23;;;1.30;;
37001;SDS011;22913;51.910;8.374;2022-09-09T14:14:30;2.67;;;1.17;;
37001;SDS011;22913;51.910;8.374;2022-09-09T14:17:15;3.50;;;1.03;;
37001;SDS011;22913;51.910;8.374;2022-09-09T14:20:01;3.13;;;1.00;;
37001;SDS011;22913;51.910;8.374;2022-09-09T14:22:49;2.70;;;1.33;;
37001;SDS011;22913;51.910;8.374;2022-09-09T14:25:34;3.43;;;1.10;;
37001;SDS011;22913;51.910;8.374;2022-09-09T14:28:19;2.33;;;1.23;;
37001;SDS011;22913;51.910;8.374;2022-09-09T14:31:05;3.27;;;1.23;;
37001;SDS011;22913;51.910;8.374;2022-09-09T14:33:51;2.37;;;1.30;;
37001;SDS011;22913;51.910;8.374;2022-09-09T14:36:37;3.80;;;1.50;;
37001;SDS011;22913;51.910;8.374;2022-09-09T14:39:24;1.63;;;1.20;;
37001;SDS011;22913;51.910;8.374;2022-09-09T14:42:10;2.13;;;1.40;;
37001;SDS011;22913;51.910;8.374;2022-09-09T14:44:56;1.50;;;1.00;;
37001;SDS011;22913;51.910;8.374;2022-09-09T14:47:41;2.37;;;1.37;;
37001;SDS011;22913;51.910;8.374;2022-09-09T14:50:27;1.40;;;0.83;;
37001;SDS011;22913;51.910;8.374;2022-09-09T14:53:13;3.33;;;1.20;;
37001;SDS011;22913;51.910;8.374;2022-09-09T14:56:09;3.00;;;1.10;;
37001;SDS011;22913;51.910;8.374;2022-09-09T14:58:57;2.10;;;1.30;;
37001;SDS011;22913;51.910;8.374;2022-09-09T15:01:45;4.67;;;1.30;;
37001;SDS011;22913;51.910;8.374;2022-09-09T15:04:30;1.67;;;1.20;;
37001;SDS011;22913;51.910;8.374;2022-09-09T15:07:16;1.53;;;1.20;;
37001;SDS011;22913;51.910;8.374;2022-09-09T15:10:03;1.37;;;0.90;;
37001;SDS011;22913;51.910;8.374;2022-09-09T15:12:50;3.73;;;1.70;;
37001;SDS011;22913;51.910;8.374;2022-09-09T15:15:36;3.03;;;0.90;;
37001;SDS011;22913;51.910;8.374;2022-09-09T15:18:22;2.33;;;1.40;;
37001;SDS011;22913;51.910;8.374;2022-09-09T15:21:08;4.23;;;1.47;;
37001;SDS011;22913;51.910;8.374;2022-09-09T15:23:54;2.87;;;1.07;;
37001;SDS011;22913;51.910;8.374;2022-09-09T15:26:40;3.10;;;1.20;;
37001;SDS011;22913;51.910;8.374;2022-09-09T15:29:27;2.10;;;1.20;;
37001;SDS011;22913;51.910;8.374;2022-09-09T15:32:13;2.67;;;1.50;;
37001;SDS011;22913;51.910;8.374;2022-09-09T15:34:59;2.17;;;1.27;;
37001;SDS011;22913;51.910;8.374;2022-09-09T15:37:45;2.83;;;1.30;;
37001;SDS011;22913;51.910;8.374;2022-09-09T15:40:31;2.20;;;1.37;;
37001;SDS011;22913;51.910;8.374;2022-09-09T15:43:17;2.80;;;1.60;;
37001;SDS011;22913;51.910;8.374;2022-09-09T15:46:05;2.53;;;1.30;;
37001;SDS011;22913;51.910;8.374;2022-09-09T15:49:09;2.37;;;1.10;;
37001;SDS011;22913;51.910;8.374;2022-09-09T15:51:57;1.60;;;1.30;;
37001;SDS011;22913;51.910;8.374;2022-09-09T15:54:47;1.67;;;1.10;;
37001;SDS011;22913;51.910;8.374;2022-09-09T15:57:32;2.37;;;1.10;;
37001;SDS011;22913;51.910;8.374;2022-09-09T16:00:18;5.30;;;1.47;;
37001;SDS011;22913;51.910;8.374;2022-09-09T16:03:06;2.33;;;1.10;;
37001;SDS011;22913;51.910;8.374;2022-09-09T16:05:51;3.27;;;1.10;;
37001;SDS011;22913;51.910;8.374;2022-09-09T16:08:38;3.13;;;1.30;;
37001;SDS011;22913;51.910;8.374;2022-09-09T16:11:25;2.17;;;1.40;;
37001;SDS011;22913;51.910;8.374;2022-09-09T16:14:13;3.47;;;1.47;;
37001;SDS011;22913;51.910;8.374;2022-09-09T16:16:59;2.80;;;1.30;;
37001;SDS011;22913;51.910;8.374;2022-09-09T16:19:46;2.70;;;1.40;;
37001;SDS011;22913;51.910;8.374;2022-09-09T16:22:32;2.03;;;1.33;;
37001;SDS011;22913;51.910;8.374;2022-09-09T16:25:17;2.23;;;1.47;;
37001;SDS011;22913;51.910;8.374;2022-09-09T16:28:03;2.77;;;1.37;;
37001;SDS011;22913;51.910;8.374;2022-09-09T16:30:49;2.40;;;1.30;;
37001;SDS011;22913;51.910;8.374;2022-09-09T16:33:35;2.70;;;1.40;;
37001;SDS011;22913;51.910;8.374;2022-09-09T16:36:22;2.73;;;1.40;;
37001;SDS011;22913;51.910;8.374;2022-09-09T16:39:10;2.77;;;1.53;;
37001;SDS011;22913;51.910;8.374;2022-09-09T16:41:57;3.03;;;1.73;;
37001;SDS011;22913;51.910;8.374;2022-09-09T16:44:43;2.70;;;1.30;;
37001;SDS011;22913;51.910;8.374;2022-09-09T16:47:29;2.70;;;1.30;;
37001;SDS011;22913;51.910;8.374;2022-09-09T16:50:15;1.47;;;0.97;;
37001;SDS011;22913;51.910;8.374;2022-09-09T16:53:02;1.80;;;1.07;;
37001;SDS011;22913;51.910;8.374;2022-09-09T16:55:50;1.93;;;1.10;;
37001;SDS011;22913;51.910;8.374;2022-09-09T16:58:35;1.30;;;1.10;;
37001;SDS011;22913;51.910;8.374;2022-09-09T17:01:22;1.73;;;1.20;;
37001;SDS011;22913;51.910;8.374;2022-09-09T17:04:09;1.23;;;0.93;;
37001;SDS011;22913;51.910;8.374;2022-09-09T17:06:57;1.83;;;1.40;;
37001;SDS011;22913;51.910;8.374;2022-09-09T17:09:45;1.80;;;1.50;;